Time;durP1;ratioP1;P1;durP2;ratioP2;P2;SDS_P1;SDS_P2;PMS_P1;PMS_P2;Temp;Humidity;BMP_temperature;BMP_pressure;BME280_temperature;BME280_humidity;BME280_pressure;Samples;Min_cycle;Max_cycle;Signal;HPM_P1;HPM_P2
2023/02/06 00:01:13;;;;;;;13.07;8.13;;;1.80;99.90;;;;;;5073227;28;20203;-67
2023/02/06 00:03:40;;;;;;;10.63;7.53;;;1.80;99.90;;;;;;5072845;28;20205;-68
2023/02/06 00:06:08;;;;;;;11.95;7.72;;;1.80;99.90;;;;;;5072899;28;20220;-68
2023/02/06 00:08:34;;;;;;;12.60;8.30;;;1.70;99.90;;;;;;5072918;28;20207;-68
2023/02/06 00:11:06;;;;;;;16.30;9.98;;;1.80;99.90;;;;;;5073096;28;20205;-67
2023/02/06 00:13:33;;;;;;;16.10;10.18;;;1.80;99.90;;;;;;5073323;28;20200;-67
2023/02/06 00:16:00;;;;;;;15.07;9.43;;;1.80;99.90;;;;;;5072897;28;20235;-66
2023/02/06 00:18:27;;;;;;;20.40;10.85;;;1.80;99.90;;;;;;5072727;28;20223;-68
2023/02/06 00:20:54;;;;;;;14.82;8.65;;;1.80;99.90;;;;;;5072771;28;20215;-66
2023/02/06 00:23:21;;;;;;;15.82;9.85;;;1.80;99.90;;;;;;5073220;28;20202;-67
2023/02/06 00:25:47;;;;;;;13.98;9.32;;;1.90;99.90;;;;;;5072781;28;20235;-67
2023/02/06 00:28:15;;;;;;;14.23;9.00;;;1.90;99.90;;;;;;5072684;28;20212;-67
2023/02/06 00:30:46;;;;;;;14.65;9.57;;;1.80;99.90;;;;;;5072796;28;20196;-67
2023/02/06 00:33:13;;;;;;;15.90;9.75;;;1.80;99.90;;;;;;5072921;28;20209;-66
2023/02/06 00:35:39;;;;;;;15.00;9.10;;;1.80;99.90;;;;;;5072830;28;20267;-66
2023/02/06 00:38:06;;;;;;;17.02;10.10;;;1.80;99.90;;;;;;5072667;28;20200;-66
2023/02/06 00:40:33;;;;;;;16.00;9.82;;;1.80;99.90;;;;;;5071291;28;20291;-69
2023/02/06 00:42:59;;;;;;;15.55;9.73;;;1.80;99.90;;;;;;5072507;28;20212;-67
2023/02/06 00:45:28;;;;;;;20.42;11.45;;;1.80;99.90;;;;;;5072507;28;20211;-67
2023/02/06 00:47:54;;;;;;;16.23;10.65;;;1.80;99.90;;;;;;5072306;28;20216;-67
2023/02/06 00:50:21;;;;;;;17.48;10.65;;;1.80;99.90;;;;;;5072200;28;20204;-66
2023/02/06 00:52:48;;;;;;;16.15;8.35;;;1.90;99.90;;;;;;5072521;28;20200;-67
2023/02/06 00:55:15;;;;;;;17.80;9.85;;;1.90;99.90;;;;;;5072639;28;20212;-67
2023/02/06 00:57:41;;;;;;;19.65;11.73;;;1.90;99.90;;;;;;5072398;28;20200;-67
2023/02/06 01:00:09;;;;;;;20.17;10.70;;;1.90;99.90;;;;;;5071669;28;20203;-66
2023/02/06 01:02:38;;;;;;;23.83;12.43;;;1.90;99.90;;;;;;5072374;28;20200;-66
2023/02/06 01:05:05;;;;;;;20.38;10.40;;;1.90;99.90;;;;;;5072114;28;20215;-67
2023/02/06 01:07:32;;;;;;;20.00;11.40;;;1.90;99.90;;;;;;5072219;28;20350;-66
2023/02/06 01:09:58;;;;;;;17.05;10.40;;;1.90;99.90;;;;;;5071492;28;20291;-66
2023/02/06 01:12:25;;;;;;;18.63;11.32;;;1.90;99.90;;;;;;5072278;28;20196;-67
2023/02/06 01:14:52;;;;;;;20.55;10.85;;;1.90;99.90;;;;;;5071795;28;20690;-67
2023/02/06 01:17:19;;;;;;;16.17;9.80;;;1.90;99.90;;;;;;5072198;28;20219;-66
2023/02/06 01:19:47;;;;;;;17.45;9.95;;;1.90;99.90;;;;;;5071507;28;20558;-66
2023/02/06 01:22:13;;;;;;;18.23;10.73;;;1.90;99.90;;;;;;5072083;28;20205;-66
2023/02/06 01:24:40;;;;;;;24.38;10.52;;;1.90;99.90;;;;;;5072094;28;20204;-66
2023/02/06 01:27:07;;;;;;;20.95;9.90;;;1.80;99.90;;;;;;5071855;28;20228;-66
2023/02/06 01:29:33;;;;;;;20.92;12.07;;;1.80;99.90;;;;;;5071313;28;20196;-67
2023/02/06 01:32:00;;;;;;;21.95;12.32;;;1.80;99.90;;;;;;5071877;28;20597;-66
2023/02/06 01:34:27;;;;;;;25.60;11.27;;;1.90;99.90;;;;;;5071901;28;20201;-67
2023/02/06 01:36:55;;;;;;;20.63;11.30;;;1.90;99.90;;;;;;5071368;28;20221;-67
2023/02/06 01:39:21;;;;;;;23.88;12.50;;;1.90;99.90;;;;;;5071229;28;20227;-66
2023/02/06 01:41:49;;;;;;;23.83;12.48;;;1.80;99.90;;;;;;5071664;28;20211;-67
2023/02/06 01:44:20;;;;;;;21.38;10.20;;;1.90;99.90;;;;;;5071647;28;20200;-66
2023/02/06 01:46:50;;;;;;;25.33;13.00;;;1.90;99.90;;;;;;5071490;28;20231;-67
2023/02/06 01:49:20;;;;;;;19.40;11.07;;;1.90;99.90;;;;;;5071202;28;20202;-66
2023/02/06 01:51:48;;;;;;;18.92;10.63;;;1.90;99.90;;;;;;5071316;28;20200;-67
2023/02/06 01:54:16;;;;;;;18.83;10.95;;;1.90;99.90;;;;;;5071563;28;20208;-66
2023/02/06 01:56:48;;;;;;;18.40;10.52;;;1.90;99.90;;;;;;5071254;28;20592;-66
2023/02/06 01:59:15;;;;;;;21.20;10.07;;;1.90;99.90;;;;;;5070763;28;20196;-66
2023/02/06 02:01:42;;;;;;;20.52;11.07;;;1.90;99.90;;;;;;5071310;28;20204;-68
2023/02/06 02:04:14;;;;;;;25.50;12.60;;;1.90;99.90;;;;;;5070984;28;20291;-68
2023/02/06 02:06:41;;;;;;;22.83;11.95;;;1.90;99.90;;;;;;5071115;28;20231;-67
2023/02/06 02:09:08;;;;;;;16.90;9.88;;;1.80;99.90;;;;;;5070591;28;20200;-66
2023/02/06 02:11:40;;;;;;;22.75;12.15;;;1.90;99.90;;;;;;5071178;28;20204;-67
2023/02/06 02:14:10;;;;;;;30.40;13.48;;;1.90;99.90;;;;;;5070694;28;20204;-67
2023/02/06 02:16:49;;;;;;;21.85;12.00;;;1.90;99.90;;;;;;5070942;28;20220;-68
2023/02/06 02:19:46;;;;;;;23.42;11.57;;;1.90;99.90;;;;;;5070355;28;20204;-67
2023/02/06 02:22:36;;;;;;;28.15;13.27;;;1.90;99.90;;;;;;5070796;28;20200;-66
2023/02/06 02:25:30;;;;;;;24.33;13.23;;;2.00;99.90;;;;;;5070671;28;20207;-67
2023/02/06 02:28:28;;;;;;;25.50;12.70;;;1.90;99.90;;;;;;5057490;28;20225;-66
2023/02/06 02:31:17;;;;;;;24.55;12.95;;;1.90;99.90;;;;;;5037209;28;20204;-67
2023/02/06 02:34:17;;;;;;;19.52;11.00;;;1.90;99.90;;;;;;5070675;28;20200;-67
2023/02/06 02:36:49;;;;;;;18.80;10.73;;;1.90;99.90;;;;;;5070601;28;20714;-67
2023/02/06 02:39:24;;;;;;;24.17;11.65;;;1.90;99.90;;;;;;5070148;28;20201;-67
2023/02/06 02:41:56;;;;;;;23.85;11.90;;;1.80;99.90;;;;;;5070444;28;20204;-67
2023/02/06 02:44:31;;;;;;;26.85;12.30;;;1.90;99.90;;;;;;5070550;28;20204;-67
2023/02/06 02:47:03;;;;;;;23.05;12.05;;;1.80;99.90;;;;;;5070314;28;20224;-67
2023/02/06 02:49:32;;;;;;;27.83;12.50;;;1.80;99.90;;;;;;5070037;28;20667;-67
2023/02/06 02:52:01;;;;;;;22.92;11.65;;;1.90;99.90;;;;;;5070364;28;20230;-67
2023/02/06 02:54:28;;;;;;;27.10;13.95;;;1.90;99.90;;;;;;5070556;28;20205;-68
2023/02/06 02:57:01;;;;;;;19.20;11.23;;;1.90;99.90;;;;;;5070182;28;20244;-67
2023/02/06 02:59:31;;;;;;;25.33;12.43;;;1.90;99.90;;;;;;5069855;28;20211;-67
2023/02/06 03:02:02;;;;;;;24.42;13.23;;;1.80;99.90;;;;;;5070174;28;20204;-67
2023/02/06 03:04:34;;;;;;;29.33;12.30;;;1.90;99.90;;;;;;5073711;28;20223;-67
2023/02/06 03:07:12;;;;;;;25.25;14.07;;;1.90;99.90;;;;;;5073901;28;20224;-68
2023/02/06 03:09:48;;;;;;;24.02;11.82;;;1.80;99.90;;;;;;5073582;28;20200;-67
2023/02/06 03:12:21;;;;;;;21.17;12.07;;;1.80;99.90;;;;;;5073979;28;20204;-67
2023/02/06 03:14:54;;;;;;;18.27;11.25;;;1.90;99.90;;;;;;5074048;28;20679;-68
2023/02/06 03:17:30;;;;;;;21.40;11.35;;;1.90;99.90;;;;;;5074054;28;20742;-67
2023/02/06 03:19:59;;;;;;;24.50;12.10;;;1.90;99.90;;;;;;5073152;28;20203;-68
2023/02/06 03:22:29;;;;;;;21.08;10.68;;;1.80;99.90;;;;;;5073906;28;20207;-68
2023/02/06 03:24:57;;;;;;;29.05;13.18;;;1.80;99.90;;;;;;5073830;28;20208;-67
2023/02/06 03:27:26;;;;;;;24.40;12.77;;;1.80;99.90;;;;;;5073571;28;20235;-66
2023/02/06 03:29:56;;;;;;;31.02;14.60;;;1.80;99.90;;;;;;5073105;28;20619;-67
2023/02/06 03:32:26;;;;;;;22.70;11.90;;;1.70;99.90;;;;;;5073697;28;20200;-67
2023/02/06 03:34:57;;;;;;;26.83;12.02;;;1.70;99.90;;;;;;5073725;28;20287;-67
2023/02/06 03:37:25;;;;;;;21.92;11.15;;;1.70;99.90;;;;;;5074083;28;20223;-67
2023/02/06 03:39:53;;;;;;;27.80;13.57;;;1.70;99.90;;;;;;5073282;28;20690;-66
2023/02/06 03:42:22;;;;;;;30.08;12.27;;;1.70;99.90;;;;;;5073537;28;20204;-67
2023/02/06 03:44:54;;;;;;;23.70;11.82;;;1.70;99.90;;;;;;5073957;28;20207;-66
2023/02/06 03:47:23;;;;;;;29.63;12.48;;;1.70;99.90;;;;;;5073140;28;20231;-67
2023/02/06 03:49:52;;;;;;;28.75;12.73;;;1.70;99.90;;;;;;5072745;28;20615;-67
2023/02/06 03:52:22;;;;;;;26.40;12.35;;;1.60;99.90;;;;;;5073416;28;20208;-67
2023/02/06 03:54:54;;;;;;;23.20;12.77;;;1.60;99.90;;;;;;5073146;28;20586;-67
2023/02/06 03:57:22;;;;;;;29.50;14.50;;;1.60;99.90;;;;;;5073461;28;20227;-67
2023/02/06 03:59:50;;;;;;;23.58;12.68;;;1.70;99.90;;;;;;5073067;28;20204;-67
2023/02/06 04:02:18;;;;;;;24.48;12.32;;;1.70;99.90;;;;;;5073000;28;20236;-68
2023/02/06 04:04:46;;;;;;;22.58;11.75;;;1.70;99.90;;;;;;5156308;22;20706;-73
2023/02/06 04:07:17;;;;;;;24.85;12.52;;;1.60;99.90;;;;;;5109924;28;20764;-73
2023/02/06 04:09:44;;;;;;;26.73;13.40;;;1.60;99.90;;;;;;5113272;28;20465;-73
2023/02/06 04:12:12;;;;;;;26.30;14.30;;;1.60;99.90;;;;;;5113303;28;20203;-73
2023/02/06 04:14:39;;;;;;;26.02;13.43;;;1.60;99.90;;;;;;5113729;28;20199;-74
2023/02/06 04:17:06;;;;;;;26.75;11.68;;;1.60;99.90;;;;;;5113074;28;20222;-75
2023/02/06 04:19:33;;;;;;;22.60;11.48;;;1.60;99.90;;;;;;5113124;28;20203;-74
2023/02/06 04:22:00;;;;;;;22.60;12.73;;;1.70;99.90;;;;;;5113142;28;20206;-75
2023/02/06 04:24:27;;;;;;;23.27;12.35;;;1.60;99.90;;;;;;5107624;28;20192;-75
2023/02/06 04:26:54;;;;;;;20.05;11.05;;;1.60;99.90;;;;;;5092938;28;20226;-75
2023/02/06 04:29:22;;;;;;;26.90;13.38;;;1.60;99.90;;;;;;5092544;28;20214;-74
2023/02/06 04:31:49;;;;;;;23.83;11.93;;;1.60;99.90;;;;;;5092868;28;20252;-75
2023/02/06 04:34:15;;;;;;;19.55;12.10;;;1.60;99.90;;;;;;5092425;28;20214;-74
2023/02/06 04:36:42;;;;;;;30.88;15.35;;;1.60;99.90;;;;;;5091614;28;20215;-75
2023/02/06 04:39:09;;;;;;;24.65;13.90;;;1.60;99.90;;;;;;5091173;28;20207;-74
2023/02/06 04:41:36;;;;;;;24.25;12.60;;;1.60;99.90;;;;;;5091430;28;20192;-74
2023/02/06 04:44:02;;;;;;;27.90;13.75;;;1.60;99.90;;;;;;5091229;28;20192;-75
2023/02/06 04:46:30;;;;;;;25.77;13.60;;;1.60;99.90;;;;;;5091792;28;20216;-74
2023/02/06 04:48:57;;;;;;;24.65;13.73;;;1.60;99.90;;;;;;5090501;28;20228;-73
2023/02/06 04:51:24;;;;;;;27.25;12.98;;;1.60;99.90;;;;;;5091992;28;20199;-73
2023/02/06 04:53:50;;;;;;;24.10;13.40;;;1.60;99.90;;;;;;5092031;28;20191;-73
2023/02/06 04:56:17;;;;;;;28.73;13.30;;;1.60;99.90;;;;;;5102496;22;20232;-76
2023/02/06 04:58:44;;;;;;;22.90;12.82;;;1.60;99.90;;;;;;5077813;28;20195;-76
2023/02/06 05:01:11;;;;;;;21.00;12.27;;;1.60;99.90;;;;;;5073496;28;20215;-76
2023/02/06 05:03:39;;;;;;;22.65;12.02;;;1.60;99.90;;;;;;5073320;28;20698;-76
2023/02/06 05:06:06;;;;;;;24.38;12.93;;;1.60;99.90;;;;;;5072888;28;20221;-75
2023/02/06 05:08:33;;;;;;;16.63;11.85;;;1.60;99.90;;;;;;5073212;28;20224;-75
2023/02/06 05:10:59;;;;;;;23.33;12.02;;;1.50;99.90;;;;;;5073002;28;20672;-75
2023/02/06 05:13:26;;;;;;;16.58;11.00;;;1.50;99.90;;;;;;5072993;28;20228;-75
2023/02/06 05:15:53;;;;;;;18.20;12.07;;;1.50;99.90;;;;;;5072658;28;20220;-76
2023/02/06 05:18:20;;;;;;;20.67;11.10;;;1.50;99.90;;;;;;5072293;28;20200;-76
2023/02/06 05:20:48;;;;;;;19.05;12.90;;;1.50;99.90;;;;;;5073904;28;20208;-76
2023/02/06 05:23:15;;;;;;;17.70;11.63;;;1.50;99.90;;;;;;5073174;28;20208;-77
2023/02/06 05:25:42;;;;;;;18.75;12.43;;;1.50;99.90;;;;;;5072307;28;20224;-76
2023/02/06 05:28:08;;;;;;;16.98;11.48;;;1.50;99.90;;;;;;5072828;28;20216;-77
2023/02/06 05:30:35;;;;;;;20.58;13.55;;;1.50;99.90;;;;;;5072712;28;20314;-76
2023/02/06 05:33:02;;;;;;;25.80;13.00;;;1.50;99.90;;;;;;5071316;28;20290;-75
2023/02/06 05:35:29;;;;;;;17.88;11.55;;;1.50;99.90;;;;;;5072070;28;20197;-76
2023/02/06 05:37:57;;;;;;;17.05;11.23;;;1.60;99.90;;;;;;5071223;28;20196;-76
2023/02/06 05:40:24;;;;;;;19.67;11.88;;;1.50;99.90;;;;;;5075678;28;20199;-76
2023/02/06 05:42:51;;;;;;;18.27;12.45;;;1.50;99.90;;;;;;5091969;28;20210;-76
2023/02/06 05:45:18;;;;;;;19.30;10.55;;;1.60;99.90;;;;;;5087407;28;20203;-76
2023/02/06 05:47:44;;;;;;;21.08;13.05;;;1.60;99.90;;;;;;5088836;28;20216;-76
2023/02/06 05:50:11;;;;;;;17.95;11.63;;;1.60;99.90;;;;;;5090454;28;20203;-76
2023/02/06 05:52:38;;;;;;;24.45;12.57;;;1.50;99.90;;;;;;5091405;28;20628;-76
2023/02/06 05:55:08;;;;;;;22.67;11.57;;;1.50;99.90;;;;;;5090702;28;20206;-75
2023/02/06 05:57:34;;;;;;;25.92;13.88;;;1.50;99.90;;;;;;5091407;28;20608;-76
2023/02/06 06:00:02;;;;;;;19.42;12.90;;;1.50;99.90;;;;;;5090789;28;20210;-76
2023/02/06 06:02:28;;;;;;;26.08;13.00;;;1.50;99.90;;;;;;5091738;28;20253;-76
2023/02/06 06:04:55;;;;;;;21.50;12.55;;;1.40;99.90;;;;;;5091390;28;20206;-76
2023/02/06 06:07:22;;;;;;;20.48;11.75;;;1.50;99.90;;;;;;5087684;28;20223;-76
2023/02/06 06:09:49;;;;;;;19.48;10.30;;;1.40;99.90;;;;;;5087456;28;20208;-76
2023/02/06 06:12:17;;;;;;;22.73;11.27;;;1.40;99.90;;;;;;5089609;28;20206;-75
2023/02/06 06:14:43;;;;;;;17.88;12.90;;;1.40;99.90;;;;;;5090045;28;20199;-76
2023/02/06 06:17:10;;;;;;;15.32;9.85;;;1.40;99.90;;;;;;5090080;28;20223;-75
2023/02/06 06:19:37;;;;;;;22.20;12.38;;;1.40;99.90;;;;;;5091023;28;20195;-75
2023/02/06 06:22:03;;;;;;;18.38;12.27;;;1.40;99.90;;;;;;5091044;28;20202;-76
2023/02/06 06:24:30;;;;;;;21.48;12.30;;;1.40;99.90;;;;;;5091671;28;20611;-76
2023/02/06 06:26:58;;;;;;;21.33;13.68;;;1.40;99.90;;;;;;5088707;28;20463;-75
2023/02/06 06:29:27;;;;;;;25.60;13.27;;;1.40;99.90;;;;;;5071813;28;20634;-77
2023/02/06 06:31:54;;;;;;;19.85;12.32;;;1.40;99.90;;;;;;5074380;28;20211;-79
2023/02/06 06:34:21;;;;;;;19.73;11.85;;;1.40;99.90;;;;;;5072413;28;20205;-76
2023/02/06 06:36:50;;;;;;;22.45;14.50;;;1.40;99.90;;;;;;5075481;28;20446;-73
2023/02/06 06:39:20;;;;;;;24.10;12.98;;;1.40;99.90;;;;;;5073144;28;20683;-73
2023/02/06 06:41:46;;;;;;;19.85;13.35;;;1.40;99.90;;;;;;5071215;28;20698;-76
2023/02/06 06:44:13;;;;;;;22.92;11.85;;;1.40;99.90;;;;;;5073323;28;20203;-75
2023/02/06 06:46:41;;;;;;;20.13;12.77;;;1.40;99.90;;;;;;5071883;28;20231;-73
2023/02/06 06:49:09;;;;;;;18.45;12.10;;;1.50;99.90;;;;;;5073481;28;20258;-73
2023/02/06 06:51:35;;;;;;;15.05;10.07;;;1.50;99.90;;;;;;5074324;28;20206;-73
2023/02/06 06:54:05;;;;;;;15.75;9.90;;;1.40;99.90;;;;;;5071981;28;20204;-73
2023/02/06 06:56:31;;;;;;;18.50;11.63;;;1.40;99.90;;;;;;5072534;28;20639;-74
2023/02/06 06:58:59;;;;;;;15.90;10.45;;;1.40;99.90;;;;;;5071607;28;20261;-75
2023/02/06 07:01:26;;;;;;;17.05;11.18;;;1.40;99.90;;;;;;5072055;28;20200;-75
2023/02/06 07:03:58;;;;;;;13.82;9.13;;;1.40;99.90;;;;;;5072173;28;20288;-74
2023/02/06 07:06:25;;;;;;;17.23;11.25;;;1.30;99.90;;;;;;5071934;28;20223;-75
2023/02/06 07:08:57;;;;;;;16.77;10.43;;;1.30;99.90;;;;;;5071967;28;20220;-75
2023/02/06 07:11:25;;;;;;;14.75;9.35;;;1.30;99.90;;;;;;5072341;28;20204;-75
2023/02/06 07:13:52;;;;;;;12.82;8.95;;;1.20;99.90;;;;;;5072348;28;20642;-74
2023/02/06 07:16:19;;;;;;;17.73;10.02;;;1.20;99.90;;;;;;5071969;28;20252;-75
2023/02/06 07:18:46;;;;;;;16.13;9.80;;;1.30;99.90;;;;;;5071482;28;20222;-75
2023/02/06 07:21:14;;;;;;;15.15;10.60;;;1.30;99.90;;;;;;5071113;28;20567;-74
2023/02/06 07:23:41;;;;;;;13.80;9.60;;;1.30;99.90;;;;;;5071361;28;20200;-75
2023/02/06 07:26:08;;;;;;;14.40;9.48;;;1.30;99.90;;;;;;5072253;28;20944;-75
2023/02/06 07:28:34;;;;;;;13.15;8.43;;;1.30;99.90;;;;;;5071065;28;20230;-75
2023/02/06 07:31:02;;;;;;;11.52;9.48;;;1.30;99.90;;;;;;5071226;28;20208;-74
2023/02/06 07:33:29;;;;;;;14.07;8.90;;;1.30;99.90;;;;;;5071447;28;20197;-75
2023/02/06 07:35:56;;;;;;;13.45;8.88;;;1.40;99.90;;;;;;5071362;28;20220;-75
2023/02/06 07:38:24;;;;;;;16.30;9.50;;;1.40;99.90;;;;;;5070746;28;20192;-75
2023/02/06 07:40:51;;;;;;;15.15;9.23;;;1.40;99.90;;;;;;5071341;28;20200;-75
2023/02/06 07:43:17;;;;;;;12.05;9.05;;;1.50;99.90;;;;;;5071783;28;20200;-75
2023/02/06 07:45:47;;;;;;;15.77;10.20;;;1.60;99.90;;;;;;5071545;28;20223;-75
2023/02/06 07:48:14;;;;;;;13.00;9.82;;;1.60;99.90;;;;;;5070746;28;20231;-75
2023/02/06 07:50:40;;;;;;;16.25;8.90;;;1.60;99.90;;;;;;5074769;28;20592;-75
2023/02/06 07:53:07;;;;;;;16.38;10.20;;;1.60;99.90;;;;;;5075081;28;20200;-74
2023/02/06 07:55:37;;;;;;;14.38;9.95;;;1.50;99.90;;;;;;5074997;28;20737;-76
2023/02/06 07:58:04;;;;;;;13.75;9.52;;;1.50;99.90;;;;;;5075027;28;20228;-75
2023/02/06 08:00:31;;;;;;;13.05;8.80;;;1.50;99.90;;;;;;5072504;28;20200;-75
2023/02/06 08:02:58;;;;;;;12.48;8.38;;;1.50;99.90;;;;;;5074146;28;20202;-75
2023/02/06 08:05:24;;;;;;;17.42;9.02;;;1.50;99.90;;;;;;5075696;28;20204;-75
2023/02/06 08:07:51;;;;;;;13.57;9.77;;;1.60;99.90;;;;;;5075036;28;20205;-74
2023/02/06 08:10:18;;;;;;;14.70;8.48;;;1.50;99.90;;;;;;5074714;28;20220;-75
2023/02/06 08:12:46;;;;;;;11.45;7.90;;;1.40;99.90;;;;;;5074912;28;20206;-75
2023/02/06 08:15:13;;;;;;;9.60;7.65;;;1.40;99.90;;;;;;5074124;28;20254;-75
2023/02/06 08:17:41;;;;;;;10.93;7.40;;;1.40;99.90;;;;;;5074726;28;20292;-75
2023/02/06 08:20:09;;;;;;;16.77;9.57;;;1.50;99.90;;;;;;5074483;28;20200;-75
2023/02/06 08:22:36;;;;;;;12.23;8.27;;;1.60;99.90;;;;;;5075009;28;20228;-75
2023/02/06 08:25:03;;;;;;;11.75;8.40;;;1.60;99.90;;;;;;5073902;28;20450;-75
2023/02/06 08:27:30;;;;;;;13.73;8.55;;;1.70;99.90;;;;;;5074668;28;20288;-75
2023/02/06 08:29:59;;;;;;;10.57;8.07;;;1.70;99.90;;;;;;5074145;28;20220;-76
2023/02/06 08:32:33;;;;;;;13.10;8.35;;;1.80;99.90;;;;;;5075076;28;20201;-75
2023/02/06 08:34:59;;;;;;;14.52;8.30;;;1.80;99.90;;;;;;5074719;28;20223;-75
2023/02/06 08:37:26;;;;;;;12.60;8.45;;;1.80;99.90;;;;;;5075705;28;20231;-74
2023/02/06 08:39:53;;;;;;;10.75;8.30;;;1.90;99.90;;;;;;5074948;28;20207;-74
2023/02/06 08:42:20;;;;;;;10.68;7.55;;;1.90;99.90;;;;;;5075633;28;20204;-75
2023/02/06 08:44:47;;;;;;;10.15;8.45;;;1.90;99.90;;;;;;5075276;28;20675;-74
2023/02/06 08:47:16;;;;;;;14.65;8.27;;;1.80;99.90;;;;;;5075836;28;20231;-75
2023/02/06 08:49:43;;;;;;;24.52;9.43;;;1.70;99.90;;;;;;5075028;28;20235;-74
2023/02/06 08:52:10;;;;;;;12.55;8.32;;;1.80;99.90;;;;;;5076139;28;20204;-74
2023/02/06 08:54:37;;;;;;;11.70;8.68;;;1.80;99.90;;;;;;5073971;28;20196;-74
2023/02/06 08:57:05;;;;;;;10.75;7.78;;;1.80;99.90;;;;;;5074582;28;20236;-73
2023/02/06 08:59:33;;;;;;;12.73;7.18;;;1.90;99.90;;;;;;5073593;28;20637;-73
2023/02/06 09:01:59;;;;;;;10.10;7.10;;;1.90;99.90;;;;;;5071337;28;20200;-72
2023/02/06 09:04:30;;;;;;;12.68;7.05;;;1.90;99.90;;;;;;5072927;28;20200;-73
2023/02/06 09:06:57;;;;;;;10.52;7.57;;;1.90;99.90;;;;;;5072926;28;20249;-74
2023/02/06 09:09:24;;;;;;;13.88;8.27;;;1.90;99.90;;;;;;5074466;28;20243;-74
2023/02/06 09:11:52;;;;;;;11.50;7.22;;;1.90;99.90;;;;;;5074280;28;20203;-74
2023/02/06 09:14:19;;;;;;;14.63;6.95;;;1.90;99.90;;;;;;5072511;28;20243;-73
2023/02/06 09:16:46;;;;;;;9.85;7.15;;;1.80;99.90;;;;;;5073634;28;20311;-73
2023/02/06 09:19:13;;;;;;;12.45;7.30;;;1.90;99.90;;;;;;5072742;28;20204;-74
2023/02/06 09:21:41;;;;;;;12.35;7.00;;;1.80;99.90;;;;;;5073867;28;20204;-74
2023/02/06 09:24:09;;;;;;;10.80;7.32;;;1.80;99.90;;;;;;5072759;28;20671;-74
2023/02/06 09:26:38;;;;;;;11.65;6.90;;;1.80;99.90;;;;;;5072180;28;20227;-73
2023/02/06 09:29:07;;;;;;;8.43;6.85;;;1.80;99.90;;;;;;5072089;28;20224;-73
2023/02/06 09:31:35;;;;;;;10.27;6.60;;;1.80;99.90;;;;;;5072676;28;20196;-74
2023/02/06 09:34:03;;;;;;;9.15;6.50;;;1.80;99.90;;;;;;5071321;28;20208;-74
2023/02/06 09:36:32;;;;;;;10.77;6.97;;;1.80;99.90;;;;;;5072748;28;20225;-74
2023/02/06 09:39:02;;;;;;;10.93;7.22;;;1.90;99.90;;;;;;5067708;28;20201;-74
2023/02/06 09:41:33;;;;;;;11.95;6.93;;;1.90;99.90;;;;;;5071085;28;20205;-75
2023/02/06 09:44:05;;;;;;;8.43;5.60;;;1.80;99.90;;;;;;5071974;28;20215;-75
2023/02/06 09:46:34;;;;;;;8.27;5.18;;;1.80;99.90;;;;;;5072867;28;20307;-75
2023/02/06 09:49:09;;;;;;;7.63;5.25;;;1.80;99.90;;;;;;5069946;28;20224;-73
2023/02/06 09:51:44;;;;;;;6.13;5.53;;;1.80;99.90;;;;;;5071278;28;20581;-75
2023/02/06 09:57:06;;;;;;;7.10;5.90;;;1.80;99.90;;;;;;5156343;22;20227;-74
2023/02/06 09:59:37;;;;;;;12.90;6.55;;;1.80;99.90;;;;;;5110864;28;20198;-75
2023/02/06 10:02:27;;;;;;;7.72;6.22;;;1.90;99.90;;;;;;5109349;28;20630;-74
2023/02/06 10:05:00;;;;;;;5.75;5.15;;;1.90;99.90;;;;;;5108546;28;20260;-74
2023/02/06 10:07:43;;;;;;;9.00;5.53;;;2.10;99.90;;;;;;5109670;28;20224;-74
2023/02/06 10:10:17;;;;;;;7.00;4.65;;;2.10;99.90;;;;;;5109676;28;20226;-75
2023/02/06 10:12:47;;;;;;;4.95;4.13;;;2.10;99.90;;;;;;5110326;28;20206;-74
2023/02/06 10:15:19;;;;;;;7.80;5.68;;;2.20;99.90;;;;;;5109886;28;20634;-75
2023/02/06 10:17:51;;;;;;;7.10;4.93;;;2.30;99.90;;;;;;5111819;28;20556;-74
2023/02/06 10:20:21;;;;;;;8.25;5.50;;;2.30;99.90;;;;;;5111228;28;20226;-74
2023/02/06 10:22:54;;;;;;;5.93;5.15;;;2.40;99.90;;;;;;5111604;28;20211;-74
2023/02/06 10:25:27;;;;;;;7.80;5.50;;;2.40;99.90;;;;;;5110493;28;20202;-74
2023/02/06 10:27:58;;;;;;;8.05;5.38;;;2.40;99.90;;;;;;5115269;28;20203;-74
2023/02/06 10:30:52;;;;;;;6.95;5.00;;;2.30;99.90;;;;;;5112490;28;20219;-74
2023/02/06 10:33:27;;;;;;;6.47;4.85;;;2.30;99.90;;;;;;5112563;28;20213;-74
2023/02/06 10:36:02;;;;;;;7.50;4.60;;;2.30;99.90;;;;;;5113254;28;20653;-73
2023/02/06 10:39:04;;;;;;;7.65;3.65;;;2.30;99.90;;;;;;5111620;28;20209;-75
2023/02/06 10:41:43;;;;;;;7.10;4.60;;;2.30;99.90;;;;;;5110668;28;20206;-74
2023/02/06 10:44:19;;;;;;;5.43;4.65;;;2.30;99.90;;;;;;5110554;28;20218;-74
2023/02/06 10:46:48;;;;;;;5.55;3.28;;;2.30;99.90;;;;;;5111865;28;20226;-74
2023/02/06 10:49:22;;;;;;;4.97;3.53;;;2.30;99.90;;;;;;5111085;28;20584;-74
2023/02/06 10:51:54;;;;;;;4.82;3.35;;;2.20;99.90;;;;;;5109345;28;20230;-74
2023/02/06 10:54:25;;;;;;;4.53;3.35;;;2.20;99.90;;;;;;5109885;28;20210;-73
2023/02/06 10:56:56;;;;;;;4.93;2.95;;;2.20;99.90;;;;;;5112827;28;20243;-74
2023/02/06 10:59:28;;;;;;;4.53;3.40;;;2.20;99.90;;;;;;5113904;28;20206;-74
2023/02/06 11:02:14;;;;;;;3.58;2.65;;;2.10;99.90;;;;;;5113245;28;20214;-74
2023/02/06 11:04:46;;;;;;;3.90;2.92;;;2.00;99.90;;;;;;5112060;28;20256;-74
2023/02/06 11:07:17;;;;;;;3.50;2.80;;;2.00;99.90;;;;;;5110115;28;20219;-74
2023/02/06 11:09:43;;;;;;;6.15;3.75;;;2.00;99.90;;;;;;5110189;28;20843;-74
2023/02/06 11:12:25;;;;;;;6.35;4.20;;;2.00;99.90;;;;;;5110179;28;20205;-74
2023/02/06 11:14:55;;;;;;;5.57;3.00;;;2.00;99.90;;;;;;5109800;28;20206;-74
2023/02/06 11:17:27;;;;;;;8.18;3.53;;;1.90;99.90;;;;;;5109926;28;20587;-74
2023/02/06 11:20:00;;;;;;;6.95;3.60;;;1.90;99.90;;;;;;5109760;28;20210;-74
2023/02/06 11:22:29;;;;;;;7.25;3.33;;;2.00;99.90;;;;;;5109959;28;20689;-74
2023/02/06 11:25:01;;;;;;;3.00;2.70;;;2.10;99.90;;;;;;5111178;28;20195;-74
2023/02/06 11:27:30;;;;;;;3.63;3.33;;;2.10;99.90;;;;;;5114399;28;20219;-74
2023/02/06 11:30:02;;;;;;;4.57;3.17;;;2.20;99.90;;;;;;5113057;28;20310;-74
2023/02/06 11:32:35;;;;;;;3.45;3.00;;;2.30;99.90;;;;;;5114655;28;20199;-73
2023/02/06 11:35:04;;;;;;;4.03;3.05;;;2.30;99.90;;;;;;5114364;28;20294;-73
2023/02/06 11:37:34;;;;;;;3.70;3.25;;;2.30;99.90;;;;;;5114079;28;20242;-73
2023/02/06 11:40:25;;;;;;;3.50;2.72;;;2.30;99.90;;;;;;5113599;28;20202;-75
2023/02/06 11:43:07;;;;;;;3.65;3.15;;;2.30;99.90;;;;;;5113924;28;20202;-75
2023/02/06 11:45:35;;;;;;;4.50;2.90;;;2.40;99.90;;;;;;5114232;28;20258;-75
2023/02/06 11:48:01;;;;;;;5.85;3.20;;;2.40;99.90;;;;;;5113892;28;20203;-72
2023/02/06 11:50:33;;;;;;;14.32;3.58;;;2.40;99.90;;;;;;5113195;28;20234;-74
2023/02/06 11:53:11;;;;;;;5.05;3.15;;;2.40;99.90;;;;;;5113979;28;20557;-74
2023/02/06 11:55:41;;;;;;;3.60;2.67;;;2.40;99.90;;;;;;5113916;28;20226;-74
2023/02/06 11:58:21;;;;;;;2.50;2.28;;;2.30;99.90;;;;;;5113844;28;20666;-74
2023/02/06 12:00:58;;;;;;;5.70;2.85;;;2.40;99.90;;;;;;5115243;28;20199;-74
2023/02/06 12:03:29;;;;;;;4.70;3.20;;;2.50;99.90;;;;;;5115164;28;20198;-74
2023/02/06 12:05:59;;;;;;;5.13;3.33;;;2.50;99.90;;;;;;5118498;28;20398;-74
2023/02/06 12:08:34;;;;;;;4.15;3.75;;;2.50;99.90;;;;;;5115354;28;20613;-74
2023/02/06 12:11:04;;;;;;;5.65;3.05;;;2.40;99.90;;;;;;5114516;28;20223;-73
2023/02/06 12:13:37;;;;;;;3.97;2.92;;;2.40;99.90;;;;;;5114873;28;20202;-73
2023/02/06 12:16:07;;;;;;;4.47;3.05;;;2.40;99.90;;;;;;5115276;28;20618;-74
2023/02/06 12:18:37;;;;;;;3.70;3.40;;;2.50;99.90;;;;;;5112697;28;20211;-73
2023/02/06 12:21:07;;;;;;;3.60;2.80;;;2.60;99.90;;;;;;5113314;28;20598;-72
2023/02/06 12:23:36;;;;;;;3.45;3.05;;;2.70;99.90;;;;;;5114533;28;20207;-73
2023/02/06 12:26:07;;;;;;;3.92;3.25;;;2.70;99.90;;;;;;5114404;28;20230;-74
2023/02/06 12:28:39;;;;;;;5.43;3.00;;;2.80;99.90;;;;;;5115939;28;20215;-74
2023/02/06 12:31:12;;;;;;;3.03;2.70;;;2.70;99.90;;;;;;5115785;28;20729;-72
2023/02/06 12:33:44;;;;;;;3.13;2.70;;;2.70;99.90;;;;;;5119836;28;20203;-73
2023/02/06 12:36:16;;;;;;;4.82;3.00;;;2.60;99.90;;;;;;5114407;28;20226;-73
2023/02/06 12:38:48;;;;;;;3.25;2.95;;;2.60;99.90;;;;;;5118129;28;20206;-73
2023/02/06 12:41:46;;;;;;;8.52;3.97;;;2.60;99.90;;;;;;5116716;28;20206;-73
2023/02/06 12:44:24;;;;;;;4.57;3.50;;;2.50;99.90;;;;;;5113818;28;20261;-73
2023/02/06 12:46:56;;;;;;;5.40;3.10;;;2.50;99.90;;;;;;5113368;28;20230;-73
2023/02/06 12:49:29;;;;;;;4.90;3.10;;;2.50;99.90;;;;;;5113762;28;20658;-74
2023/02/06 12:52:03;;;;;;;4.50;4.03;;;2.50;99.90;;;;;;5114639;28;20195;-73
2023/02/06 12:54:38;;;;;;;5.63;3.60;;;2.40;99.90;;;;;;5115699;27;20233;-73
2023/02/06 12:57:12;;;;;;;5.07;3.42;;;2.40;99.90;;;;;;5134646;27;20296;-75
2023/02/06 13:00:12;;;;;;;4.53;3.23;;;2.50;99.90;;;;;;5151528;22;20202;-72
2023/02/06 13:03:01;;;;;;;5.40;3.85;;;2.50;99.90;;;;;;5057682;28;20201;-71